LHKE weather

Kecskemét Airport
Kecskemét, Bács-Kiskun, Hungary

Public forecast

Using degrees Celsius for public forecast. Weather courtesy of forecast.io.

METAR (pilot weather report)

Retrieved 2019/03/26 14:15 UTC (32 minutes ago):

LHKE 261415Z 30010KT 270V330 CAVOK 13/M06 Q1020 NOSIG RMK BLU

TAF (pilot weather forecast)

Forecast is more than 12 hours old.

Retrieved 2017/10/21 15:33 UTC (1 year ago):

TAF TAF LHKE 211415Z 2115/2224 29004KT CAVOK BECMG 2117/2119 8000 NSC BECMG 2119/2122 5000 BR MIBCFG NSC BECMG 2122/2224 VRB03KT 3000 BR